createdAt,value
2019-05-02T00:02:18.377Z,165599.25
2019-05-02T00:04:51.043Z,165589.92
2019-05-02T00:07:20.222Z,165549.91
2019-05-02T00:09:48.378Z,165601.95
2019-05-02T00:12:20.040Z,165585.92
2019-05-02T00:14:48.633Z,165584.58
2019-05-02T00:17:20.455Z,165613.94
2019-05-02T00:19:51.280Z,165627.33
2019-05-02T00:22:20.717Z,165629.98
2019-05-02T00:24:48.994Z,165623.28
2019-05-02T00:27:17.306Z,165603.31
2019-05-02T00:29:46.638Z,165609.95
2019-05-02T00:32:18.294Z,165612.66
2019-05-02T00:34:45.917Z,165596.63
2019-05-02T00:37:18.786Z,165619.30
2019-05-02T00:39:49.133Z,165613.94
2019-05-02T00:42:17.559Z,165583.28
2019-05-02T00:44:48.158Z,165577.94
2019-05-02T00:47:42.310Z,165623.28
2019-05-02T00:50:11.176Z,165631.33
2019-05-02T00:52:40.791Z,165620.64
2019-05-02T00:55:09.101Z,165588.63
2019-05-02T00:57:37.491Z,165627.33
2019-05-02T01:00:07.510Z,165589.92
2019-05-02T01:02:42.167Z,165632.63
2019-05-02T01:05:13.400Z,165612.66
2019-05-02T01:07:41.581Z,165619.30
2019-05-02T01:10:11.350Z,165652.66
2019-05-02T01:12:39.873Z,165676.69
2019-05-02T01:15:11.319Z,165655.36
2019-05-02T01:17:39.512Z,165631.33
2019-05-02T01:20:09.430Z,165631.33
2019-05-02T01:22:37.771Z,165632.63
2019-05-02T01:25:06.400Z,165633.97
2019-05-02T01:27:42.863Z,165620.64
2019-05-02T01:30:42.351Z,165618.00
2019-05-02T01:33:21.468Z,165613.94
2019-05-02T01:36:01.727Z,165580.58
2019-05-02T01:38:36.777Z,165622.00
2019-05-02T01:41:05.509Z,165627.33
2019-05-02T01:43:33.653Z,165648.66
2019-05-02T01:46:01.864Z,165647.31
2019-05-02T01:48:30.394Z,165628.63
2019-05-02T01:50:58.846Z,165644.67
2019-05-02T01:53:29.457Z,165628.63
2019-05-02T01:55:59.269Z,165644.67
2019-05-02T01:58:27.853Z,165636.67
2019-05-02T02:00:56.192Z,165650.00
2019-05-02T02:03:24.341Z,165652.66
2019-05-02T02:05:52.712Z,165666.05
2019-05-02T02:08:21.333Z,165672.69
2019-05-02T02:10:50.462Z,165682.03
2019-05-02T02:13:20.097Z,165694.08
2019-05-02T02:15:48.914Z,165688.73
2019-05-02T02:18:22.082Z,165644.67
2019-05-02T02:20:58.932Z,165663.34
2019-05-02T02:23:34.954Z,165682.03
2019-05-02T02:26:06.712Z,165699.42
2019-05-02T02:28:36.810Z,165679.39
2019-05-02T02:31:07.776Z,165708.77
2019-05-02T02:33:41.005Z,165698.08
2019-05-02T02:36:05.267Z,165698.08
2019-05-02T02:38:35.377Z,165682.03
2019-05-02T02:41:06.488Z,165687.38
2019-05-02T02:43:35.056Z,165671.34
2019-05-02T02:46:19.634Z,165692.72
2019-05-02T02:48:48.121Z,165667.34
2019-05-02T02:51:23.609Z,165694.08
2019-05-02T02:53:46.955Z,165699.42
2019-05-02T02:56:15.606Z,165703.41
2019-05-02T02:58:47.489Z,165676.69
2019-05-02T03:01:14.213Z,165692.72
2019-05-02T03:03:42.370Z,165699.42
2019-05-02T03:06:11.007Z,165718.11
2019-05-02T03:08:46.319Z,165710.06
2019-05-02T03:11:22.730Z,165708.77
2019-05-02T03:14:06.699Z,165698.08
2019-05-02T03:16:30.914Z,165712.75
2019-05-02T03:18:59.581Z,165691.38
2019-05-02T03:21:28.098Z,165690.08
2019-05-02T03:24:03.310Z,165711.41
2019-05-02T03:26:27.151Z,165700.72
2019-05-02T03:28:58.391Z,165724.75
2019-05-02T03:31:30.318Z,165688.73
2019-05-02T03:34:00.495Z,165712.75
2019-05-02T03:36:34.424Z,165708.77
2019-05-02T03:38:58.896Z,165698.08
2019-05-02T03:41:27.707Z,165706.06
2019-05-02T03:44:09.811Z,165690.08
2019-05-02T03:46:27.126Z,165684.73
2019-05-02T03:49:05.947Z,165684.73
2019-05-02T03:51:25.965Z,165680.69
2019-05-02T03:54:06.444Z,165688.73
2019-05-02T03:56:25.075Z,165692.72
2019-05-02T03:58:56.494Z,165715.41
2019-05-02T04:01:25.010Z,165687.38
2019-05-02T04:03:53.663Z,165663.34
2019-05-02T04:06:23.802Z,165723.45
2019-05-02T04:08:58.892Z,165710.06
2019-05-02T04:11:25.770Z,165703.41
2019-05-02T04:13:57.251Z,165735.44
2019-05-02T04:16:28.885Z,165720.75
2019-05-02T04:19:01.518Z,165734.09
2019-05-02T04:21:30.022Z,165704.72
2019-05-02T04:24:06.624Z,165716.75
2019-05-02T04:26:29.078Z,165691.38
2019-05-02T04:28:57.877Z,165680.69
2019-05-02T04:31:31.560Z,165679.39
2019-05-02T04:33:56.478Z,165675.39
2019-05-02T04:36:25.024Z,165696.72
2019-05-02T04:38:53.531Z,165674.05
2019-05-02T04:41:28.536Z,165691.38
2019-05-02T04:43:57.410Z,165667.34
2019-05-02T04:46:30.127Z,165692.72
2019-05-02T04:48:53.410Z,165695.38
2019-05-02T04:51:22.511Z,165688.73
2019-05-02T04:53:50.771Z,165667.34
2019-05-02T04:56:19.031Z,165691.38
2019-05-02T04:58:49.330Z,165676.69
2019-05-02T05:01:21.323Z,165688.73
2019-05-02T05:03:57.382Z,165692.72
2019-05-02T05:06:19.223Z,165680.69
2019-05-02T05:08:48.228Z,165683.38
2019-05-02T05:11:20.890Z,165698.08
2019-05-02T05:13:47.950Z,165716.75
2019-05-02T05:16:18.463Z,165714.11
2019-05-02T05:18:51.263Z,165716.75
2019-05-02T05:21:18.150Z,165711.41
2019-05-02T05:24:09.655Z,165716.75
2019-05-02T05:26:42.938Z,165728.80
2019-05-02T05:29:13.986Z,165740.78
2019-05-02T05:31:40.784Z,165756.83
2019-05-02T05:34:09.869Z,165750.13
2019-05-02T05:36:38.857Z,165756.83
2019-05-02T05:39:09.473Z,165762.17
2019-05-02T05:41:37.902Z,165762.17
2019-05-02T05:44:07.833Z,165788.86
2019-05-02T05:46:40.600Z,165818.25
2019-05-02T05:49:10.573Z,165828.94
2019-05-02T05:51:37.540Z,165814.25
2019-05-02T05:54:07.717Z,165802.20
2019-05-02T05:56:39.701Z,165811.55
2019-05-02T05:59:07.805Z,165807.55
2019-05-02T06:01:38.416Z,165756.83
2019-05-02T06:04:08.034Z,165788.86
2019-05-02T06:06:37.779Z,165795.56
2019-05-02T06:09:07.905Z,165818.25
2019-05-02T06:11:36.304Z,165804.91
2019-05-02T06:14:04.963Z,165820.89
2019-05-02T06:16:35.251Z,165767.47
2019-05-02T06:19:03.798Z,165804.91
2019-05-02T06:21:32.299Z,165815.55
2019-05-02T06:24:00.817Z,165812.91
2019-05-02T06:26:29.046Z,165799.56
2019-05-02T06:28:57.200Z,165811.55
2019-05-02T06:31:25.740Z,165824.94
2019-05-02T06:33:53.886Z,165820.89
2019-05-02T06:36:22.342Z,165850.33
2019-05-02T06:38:52.122Z,165830.23
2019-05-02T06:41:22.250Z,165836.98
2019-05-02T06:43:50.624Z,165834.34
2019-05-02T06:46:22.001Z,165857.03
2019-05-02T06:48:52.222Z,165853.03
2019-05-02T06:51:20.986Z,165828.94
2019-05-02T06:53:49.799Z,165859.69
2019-05-02T06:56:18.934Z,165863.67
2019-05-02T06:58:47.331Z,165818.25
2019-05-02T07:01:16.204Z,165877.08
2019-05-02T07:03:47.567Z,165869.03
2019-05-02T07:06:16.776Z,165886.42
2019-05-02T07:08:45.746Z,165877.08
2019-05-02T07:11:14.144Z,165894.42
2019-05-02T07:13:43.808Z,165871.72
2019-05-02T07:16:38.818Z,165865.03
2019-05-02T07:19:29.184Z,165887.77
2019-05-02T07:21:58.496Z,165879.72
2019-05-02T07:24:30.600Z,165906.47
2019-05-02T07:26:58.140Z,165903.77
2019-05-02T07:29:26.513Z,165898.41
2019-05-02T07:31:54.811Z,165887.77
2019-05-02T07:34:23.420Z,165902.41
2019-05-02T07:36:51.615Z,165889.06
2019-05-02T07:39:20.111Z,165882.42
2019-05-02T07:41:48.582Z,165901.11
2019-05-02T07:44:16.837Z,165885.06
2019-05-02T07:46:51.583Z,165873.06
2019-05-02T07:49:15.184Z,165895.77
2019-05-02T07:51:43.631Z,165879.72
2019-05-02T07:54:12.242Z,165925.16
2019-05-02T07:56:40.994Z,165946.50
2019-05-02T07:59:09.278Z,165970.55
2019-05-02T08:01:37.787Z,165999.94
2019-05-02T08:04:11.014Z,165981.25
2019-05-02T08:06:40.168Z,165967.91
2019-05-02T08:09:09.205Z,166003.95
2019-05-02T08:11:38.533Z,166002.66
2019-05-02T08:14:07.003Z,166017.34
2019-05-02T08:16:35.576Z,166013.30
2019-05-02T08:19:05.400Z,165990.59
2019-05-02T08:21:34.241Z,165998.59
2019-05-02T08:24:03.631Z,166002.66
2019-05-02T08:27:01.214Z,165981.25
2019-05-02T08:29:30.799Z,165937.16
2019-05-02T08:31:59.146Z,165917.11
2019-05-02T08:34:33.179Z,165966.55
2019-05-02T08:37:04.584Z,165930.52
2019-05-02T08:39:33.892Z,165930.52
2019-05-02T08:42:03.906Z,165943.86
2019-05-02T08:44:32.146Z,165946.50
2019-05-02T08:47:00.583Z,165955.84
2019-05-02T08:49:29.292Z,165963.91
2019-05-02T08:51:57.751Z,165987.95
2019-05-02T08:54:27.924Z,165969.25
2019-05-02T08:56:58.912Z,166009.30
2019-05-02T08:59:26.690Z,166025.34
2019-05-02T09:01:55.050Z,166061.41
2019-05-02T09:04:24.239Z,166120.22
2019-05-02T09:06:58.722Z,166125.56
2019-05-02T09:09:28.044Z,166153.63
2019-05-02T09:12:03.267Z,166203.09
2019-05-02T09:14:25.077Z,166256.62
2019-05-02T09:16:53.609Z,166240.52
2019-05-02T09:19:26.281Z,166304.75
2019-05-02T09:21:52.597Z,166299.41
2019-05-02T09:24:23.814Z,166260.63
2019-05-02T09:26:51.882Z,166233.86
2019-05-02T09:29:22.214Z,166265.97
2019-05-02T09:31:52.504Z,166269.98
2019-05-02T09:34:22.857Z,166279.34
2019-05-02T09:36:53.155Z,166447.83
2019-05-02T09:39:22.728Z,166414.39
2019-05-02T09:41:52.639Z,166473.25
2019-05-02T09:44:22.379Z,166532.13
2019-05-02T09:46:55.161Z,166620.50
2019-05-02T09:49:22.097Z,166641.87
2019-05-02T09:51:59.281Z,166604.37
2019-05-02T09:54:23.195Z,166762.33
2019-05-02T09:56:52.408Z,166728.88
2019-05-02T09:59:30.114Z,166755.67
2019-05-02T10:01:55.589Z,166744.95
2019-05-02T10:04:24.488Z,166635.17
2019-05-02T10:06:52.710Z,166589.66
2019-05-02T10:09:24.307Z,166599.02
2019-05-02T10:11:52.474Z,166629.88
2019-05-02T10:14:22.638Z,166675.33
2019-05-02T10:17:09.724Z,166623.16
2019-05-02T10:19:57.287Z,166620.50
2019-05-02T10:22:41.117Z,166603.02
2019-05-02T10:25:11.791Z,166607.03
2019-05-02T10:27:46.012Z,166649.89
2019-05-02T10:30:15.665Z,166676.69
2019-05-02T10:32:47.273Z,166620.50
2019-05-02T10:35:17.055Z,166641.87
2019-05-02T10:37:45.558Z,166600.38
2019-05-02T10:40:17.155Z,166645.89
2019-05-02T10:42:45.429Z,166615.14
2019-05-02T10:45:16.710Z,166686.05
2019-05-02T10:47:44.903Z,166848.00
2019-05-02T10:50:27.403Z,166869.44
2019-05-02T10:52:55.985Z,166765.03
2019-05-02T10:55:25.207Z,166765.03
2019-05-02T10:57:54.146Z,166821.25
2019-05-02T11:00:29.571Z,166698.06
2019-05-02T11:03:17.515Z,166694.06
2019-05-02T11:05:49.066Z,166671.33
2019-05-02T11:08:17.299Z,166696.78
2019-05-02T11:10:45.809Z,166789.12
2019-05-02T11:13:23.783Z,166839.98
2019-05-02T11:16:12.228Z,166823.91
2019-05-02T11:18:59.030Z,166963.25
2019-05-02T11:21:27.568Z,167035.56
2019-05-02T11:23:56.318Z,167074.36
2019-05-02T11:26:25.515Z,167042.23
2019-05-02T11:28:53.902Z,167137.33
2019-05-02T11:31:22.417Z,167200.30
2019-05-02T11:33:52.733Z,167102.53
2019-05-02T11:36:22.300Z,167113.22
2019-05-02T11:38:59.793Z,167220.41
2019-05-02T11:41:22.399Z,167181.55
2019-05-02T11:43:54.148Z,167062.34
2019-05-02T11:46:22.068Z,167008.75
2019-05-02T11:48:56.326Z,167083.78
2019-05-02T11:51:22.529Z,167079.73
2019-05-02T11:53:52.758Z,167122.64
2019-05-02T11:56:22.229Z,167107.91
2019-05-02T11:58:52.851Z,167170.88
2019-05-02T12:01:34.741Z,167251.30
2019-05-02T12:03:52.663Z,167208.38
2019-05-02T12:06:22.485Z,167113.22
2019-05-02T12:08:52.478Z,167121.28
2019-05-02T12:11:22.921Z,167115.92
2019-05-02T12:13:52.835Z,167019.47
2019-05-02T12:16:22.996Z,167016.77
2019-05-02T12:18:53.804Z,166929.67
2019-05-02T12:21:22.848Z,166995.38
2019-05-02T12:23:52.652Z,167022.13
2019-05-02T12:26:22.099Z,167113.22
2019-05-02T12:28:52.463Z,167178.89
2019-05-02T12:31:28.818Z,167236.50
2019-05-02T12:33:58.796Z,167298.19
2019-05-02T12:36:27.341Z,167225.78
2019-05-02T12:38:55.566Z,167182.91
2019-05-02T12:41:25.285Z,167185.56
2019-05-02T12:43:53.633Z,167237.86
2019-05-02T12:46:22.296Z,167315.64
2019-05-02T12:48:52.026Z,167185.56
2019-05-02T12:51:22.360Z,167247.23
2019-05-02T12:53:52.660Z,167232.50
2019-05-02T12:56:22.881Z,167177.53
2019-05-02T12:58:52.979Z,167051.61
2019-05-02T13:01:22.192Z,167055.61
2019-05-02T13:03:59.403Z,167107.91
2019-05-02T13:06:27.980Z,167168.16
2019-05-02T13:08:56.410Z,167085.09
2019-05-02T13:11:52.622Z,167182.91
2019-05-02T13:14:24.496Z,167212.38
2019-05-02T13:17:01.010Z,167140.03
2019-05-02T13:19:36.797Z,167144.05
2019-05-02T13:22:04.554Z,167150.77
2019-05-02T13:24:35.926Z,167086.44
2019-05-02T13:27:09.299Z,167060.97
2019-05-02T13:29:37.985Z,167107.91
2019-05-02T13:32:17.411Z,167132.02
2019-05-02T13:34:55.545Z,167154.78
2019-05-02T13:37:23.749Z,167074.36
2019-05-02T13:40:02.783Z,167035.56
2019-05-02T13:42:31.151Z,167044.94
2019-05-02T13:45:26.481Z,167054.31
2019-05-02T13:47:55.132Z,167011.47
2019-05-02T13:50:23.972Z,167000.73
2019-05-02T13:52:57.713Z,167008.75
2019-05-02T13:55:27.650Z,166931.02
2019-05-02T13:57:55.942Z,166869.44
2019-05-02T14:00:31.919Z,166928.38
2019-05-02T14:03:02.863Z,166969.91
2019-05-02T14:05:31.760Z,166952.52
2019-05-02T14:08:19.736Z,167024.84
2019-05-02T14:10:52.688Z,167059.67
2019-05-02T14:13:22.142Z,167158.78
2019-05-02T14:15:52.624Z,167085.09
2019-05-02T14:18:28.726Z,167126.66
2019-05-02T14:20:52.690Z,167094.47
2019-05-02T14:23:22.178Z,167169.52
2019-05-02T14:25:52.074Z,167081.08
2019-05-02T14:28:22.272Z,167008.75
2019-05-02T14:30:52.477Z,166977.92
2019-05-02T14:33:23.392Z,166965.91
2019-05-02T14:35:52.705Z,166971.27
2019-05-02T14:38:22.071Z,167039.58
2019-05-02T14:41:12.432Z,167067.70
2019-05-02T14:44:09.049Z,167040.88
2019-05-02T14:46:39.441Z,167034.22
2019-05-02T14:49:07.545Z,166971.27
2019-05-02T14:51:36.955Z,166921.66
2019-05-02T14:54:08.416Z,166920.30
2019-05-02T14:57:02.011Z,166834.63
2019-05-02T14:59:32.128Z,166908.28
2019-05-02T15:02:07.478Z,166943.09
2019-05-02T15:04:38.126Z,166992.66
2019-05-02T15:07:04.947Z,166980.63
2019-05-02T15:09:36.107Z,166949.81
2019-05-02T15:12:13.506Z,166949.81
2019-05-02T15:14:34.645Z,166888.19
2019-05-02T15:17:04.044Z,166901.56
2019-05-02T15:19:32.885Z,166893.53
2019-05-02T15:22:02.414Z,166913.64
2019-05-02T15:24:33.210Z,166923.00
2019-05-02T15:27:03.960Z,166916.28
2019-05-02T15:29:32.193Z,166925.66
2019-05-02T15:32:25.475Z,166876.16
2019-05-02T15:35:05.690Z,166807.87
2019-05-02T15:37:35.807Z,166807.87
2019-05-02T15:42:35.124Z,166765.03
2019-05-02T15:45:05.685Z,166700.78
2019-05-02T15:47:37.182Z,166601.67
2019-05-02T15:50:04.848Z,166486.63
2019-05-02T15:52:35.505Z,166459.91
2019-05-02T15:55:04.586Z,166431.81
2019-05-02T15:57:43.127Z,166410.39
2019-05-02T16:00:05.815Z,166430.47
2019-05-02T16:02:34.763Z,166419.75
2019-05-02T16:05:05.488Z,166406.39
2019-05-02T16:07:37.903Z,166368.95
2019-05-02T16:10:04.967Z,166352.89
2019-05-02T16:12:36.037Z,166374.31
2019-05-02T16:15:13.039Z,166384.97
2019-05-02T16:17:35.622Z,166391.67
2019-05-02T16:20:13.363Z,166387.67
2019-05-02T16:22:46.227Z,166431.81
2019-05-02T16:25:12.236Z,166410.39
2019-05-02T16:27:45.278Z,166431.81
2019-05-02T16:30:17.797Z,166462.55
2019-05-02T16:32:52.262Z,166462.55
2019-05-02T16:35:22.322Z,166508.05
2019-05-02T16:37:52.338Z,166494.69
2019-05-02T16:40:29.457Z,166586.95
2019-05-02T16:42:51.917Z,166607.03
2019-05-02T16:45:22.080Z,166589.66
2019-05-02T16:47:58.679Z,166558.86
2019-05-02T16:50:22.897Z,166545.50
2019-05-02T16:52:53.007Z,166512.05
2019-05-02T16:55:26.614Z,166529.42
2019-05-02T16:57:56.856Z,166491.98
2019-05-02T17:00:25.008Z,166431.81
2019-05-02T17:02:53.654Z,166401.03
2019-05-02T17:05:22.124Z,166328.83
2019-05-02T17:08:20.205Z,166334.19
2019-05-02T17:11:08.884Z,166261.97
2019-05-02T17:13:37.181Z,166231.16
2019-05-02T17:16:12.959Z,166192.39
2019-05-02T17:18:36.021Z,166201.73
2019-05-02T17:21:04.406Z,166203.09
2019-05-02T17:23:32.942Z,166150.97
2019-05-02T17:26:01.720Z,166136.27
2019-05-02T17:28:31.617Z,166105.50
2019-05-02T17:31:00.308Z,166029.34
2019-05-02T17:33:28.744Z,165997.30
2019-05-02T17:35:57.386Z,165985.25
2019-05-02T17:38:29.161Z,165973.25
2019-05-02T17:40:59.288Z,165942.50
2019-05-02T17:43:26.026Z,165858.37
2019-05-02T17:45:56.246Z,165847.69
2019-05-02T17:48:25.122Z,165808.89
2019-05-02T17:51:08.791Z,165798.20
2019-05-02T17:53:41.315Z,165780.87
2019-05-02T17:56:13.076Z,165766.17
2019-05-02T17:58:39.754Z,165772.81
2019-05-02T18:01:13.565Z,165762.17
2019-05-02T18:03:42.518Z,165715.41
2019-05-02T18:06:12.633Z,165767.47
2019-05-02T18:08:41.750Z,165759.47
2019-05-02T18:11:10.054Z,165690.08
2019-05-02T18:13:38.513Z,165691.38
2019-05-02T18:16:15.061Z,165698.08
2019-05-02T18:18:42.649Z,165703.41
2019-05-02T18:21:07.680Z,165696.72
2019-05-02T18:23:36.662Z,165679.39
2019-05-02T18:26:06.349Z,165663.34
2019-05-02T18:28:46.049Z,165683.38
2019-05-02T18:31:05.920Z,165675.39
2019-05-02T18:33:35.834Z,165694.08
2019-05-02T18:36:05.047Z,165662.00
2019-05-02T18:38:33.224Z,165684.73
2019-05-02T18:41:05.972Z,165633.97
2019-05-02T18:43:36.053Z,165667.34
2019-05-02T18:46:07.479Z,165655.36
2019-05-02T18:48:36.701Z,165660.70
2019-05-02T18:51:04.142Z,165674.05
2019-05-02T18:53:32.743Z,165607.31
2019-05-02T18:56:03.454Z,165660.70
2019-05-02T18:58:32.001Z,165646.02
2019-05-02T19:01:00.328Z,165659.34
2019-05-02T19:03:28.796Z,165647.31
2019-05-02T19:05:58.328Z,165639.31
2019-05-02T19:08:33.684Z,165644.67
2019-05-02T19:11:08.967Z,165609.95
2019-05-02T19:13:32.703Z,165633.97
2019-05-02T19:16:02.045Z,165623.28
2019-05-02T19:18:32.403Z,165604.61
2019-05-02T19:21:04.630Z,165605.95
2019-05-02T19:23:34.657Z,165622.00
2019-05-02T19:26:09.843Z,165623.28
2019-05-02T19:28:57.926Z,165601.95
2019-05-02T19:31:36.614Z,165613.94
2019-05-02T19:34:04.135Z,165622.00
2019-05-02T19:36:32.819Z,165604.61
2019-05-02T19:39:06.303Z,165607.31
2019-05-02T19:41:32.075Z,165607.31
2019-05-02T19:44:02.318Z,165631.33
2019-05-02T19:46:34.595Z,165629.98
2019-05-02T19:49:02.092Z,165609.95
2019-05-02T19:51:31.747Z,165612.66
2019-05-02T19:54:03.230Z,165628.63
2019-05-02T19:56:33.385Z,165567.25
2019-05-02T19:59:02.566Z,165585.92
2019-05-02T20:01:31.017Z,165593.97
2019-05-02T20:04:04.397Z,165591.27
2019-05-02T20:06:32.436Z,165500.53
2019-05-02T20:09:04.792Z,165532.53
2019-05-02T20:11:33.019Z,165545.92
2019-05-02T20:14:07.007Z,165520.55
2019-05-02T20:16:47.821Z,165521.84
2019-05-02T20:19:17.377Z,165529.89
2019-05-02T20:22:06.648Z,165513.86
2019-05-02T20:24:59.864Z,165541.88
2019-05-02T20:27:28.144Z,165523.20
2019-05-02T20:29:55.779Z,165573.94
2019-05-02T20:32:24.641Z,165555.27
2019-05-02T20:34:52.875Z,165519.20
2019-05-02T20:37:22.155Z,165537.88
2019-05-02T20:39:51.079Z,165535.23
2019-05-02T20:42:19.253Z,165529.89
2019-05-02T20:44:47.409Z,165521.84
2019-05-02T20:47:24.147Z,165532.53
2019-05-02T20:49:52.495Z,165535.23
2019-05-02T20:52:21.759Z,165537.88
2019-05-02T20:54:52.192Z,165548.56
2019-05-02T20:57:20.558Z,165535.23
2019-05-02T20:59:48.963Z,165532.53
2019-05-02T21:02:17.207Z,165500.53
2019-05-02T21:04:45.358Z,165528.53
2019-05-02T21:07:33.264Z,165525.91
2019-05-02T21:10:06.822Z,165519.20
2019-05-02T21:12:35.105Z,165537.88
2019-05-02T21:15:04.052Z,165519.20
2019-05-02T21:17:32.760Z,165511.22
2019-05-02T21:20:01.923Z,165521.84
2019-05-02T21:22:32.730Z,165503.17
2019-05-02T21:25:02.458Z,165508.52
2019-05-02T21:27:32.388Z,165492.53
2019-05-02T21:30:01.507Z,165472.52
2019-05-02T21:32:32.044Z,165467.17
2019-05-02T21:34:59.948Z,165436.47
2019-05-02T21:37:28.656Z,165429.83
2019-05-02T21:39:57.264Z,165415.14
2019-05-02T21:42:25.520Z,165408.45
2019-05-02T21:44:55.033Z,165412.45
2019-05-02T21:47:23.228Z,165389.78
2019-05-02T21:50:06.587Z,165407.11
2019-05-02T21:52:54.300Z,165380.45
2019-05-02T21:55:44.535Z,165392.44
2019-05-02T21:58:12.722Z,165359.09
2019-05-02T22:00:52.772Z,165340.37
2019-05-02T22:03:21.720Z,165344.41
2019-05-02T22:05:51.800Z,165281.67
2019-05-02T22:08:21.672Z,165273.69
2019-05-02T22:10:52.140Z,165264.34
2019-05-02T22:13:22.241Z,165233.66
2019-05-02T22:15:51.653Z,165237.70
2019-05-02T22:18:21.678Z,165200.33
2019-05-02T22:20:52.172Z,165192.34
2019-05-02T22:23:20.415Z,165218.98
2019-05-02T22:25:48.879Z,165217.69
2019-05-02T22:28:17.033Z,165200.33
2019-05-02T22:30:45.275Z,165179.03
2019-05-02T22:33:14.068Z,165160.37
2019-05-02T22:35:43.389Z,165152.33
2019-05-02T22:38:42.224Z,165151.03
2019-05-02T22:41:12.151Z,165105.69
2019-05-02T22:43:42.149Z,165143.00
2019-05-02T22:46:14.076Z,165095.02
2019-05-02T22:48:42.786Z,165069.72
2019-05-02T22:51:12.057Z,165055.06
2019-05-02T22:53:41.737Z,165068.38
2019-05-02T22:56:13.195Z,165059.05
2019-05-02T22:58:42.017Z,165068.38
2019-05-02T23:01:10.409Z,165068.38
2019-05-02T23:03:38.912Z,165080.34
2019-05-02T23:06:07.909Z,165101.70
2019-05-02T23:08:36.402Z,165104.34
2019-05-02T23:11:05.241Z,165105.69
2019-05-02T23:13:33.723Z,165073.72
2019-05-02T23:16:02.916Z,165060.34
2019-05-02T23:18:31.964Z,165021.69
2019-05-02T23:21:02.130Z,165063.03
2019-05-02T23:23:32.588Z,165057.70
2019-05-02T23:26:32.640Z,165071.02
2019-05-02T23:29:02.304Z,165073.72
2019-05-02T23:31:31.767Z,165064.39
2019-05-02T23:34:02.093Z,165049.72
2019-05-02T23:36:32.439Z,165031.06
2019-05-02T23:39:02.680Z,165064.39
2019-05-02T23:41:32.726Z,165063.03
2019-05-02T23:44:02.815Z,165045.73
2019-05-02T23:46:31.575Z,165047.03
2019-05-02T23:49:01.955Z,165047.03
2019-05-02T23:51:32.052Z,165004.37
2019-05-02T23:54:02.123Z,165008.37
2019-05-02T23:56:32.534Z,164988.38
2019-05-02T23:59:02.696Z,164980.41
